Flight Track Log - Related Links

Times and Time Zones

All times are in EST time to prevent confusion due to time zone crossing. See the SWA691 flight status page for this flight to view local times or setup timezone preferences in your user account.


Time Position Orientation Groundspeed Altitude Reporting Facility
EST Latitude Longitude Course Direction KTS MPH feet Rate Location/Type
Mon 01:44:36 PM 39.1667 -76.7500 169° South 217 250 2,600  Level Potomac TRACON
Mon 01:45:37 PM 39.1000 -76.7333 169° South 266 306 4,700 2,111 Climbing Potomac TRACON
Mon 01:47:18 PM 39.0111 -76.6361 140° Southeast 277 319 8,300 2,444 Climbing Washington Center
Mon 01:48:19 PM 38.9511 -76.5500 132° Southeast 294 338 11,300 2,874 Climbing Washington Center
Mon 01:49:17 PM 38.8661 -76.4875 150° Southeast 326 375 14,000 1,361 Climbing Washington Center
Mon 01:50:18 PM 38.7867 -76.5344 205° Southwest 279 321 14,000 541 Level Washington Center
Mon 01:51:19 PM 38.7131 -76.5972 214° Southwest 287 330 15,100 2,579 Climbing Washington Center
Mon 01:52:19 PM 38.6439 -76.6575 214° Southwest 301 346 19,200 3,550 Climbing Washington Center
Mon 01:53:19 PM 38.5683 -76.7150 211° Southwest 314 361 22,200 2,847 Climbing Washington Center
Mon 01:54:17 PM 38.4683 -76.7161 180° South 326 375 24,800 2,390 Climbing Washington Center
Mon 01:55:17 PM 38.3578 -76.7011 174° South 358 412 26,900 1,983 Climbing Washington Center
Mon 01:56:18 PM 38.2433 -76.6808 172° South 390 449 28,800 1,934 Climbing Washington Center
Mon 01:57:18 PM 38.1225 -76.6661 175° South 416 479 30,800 2,628 Climbing Washington Center
Mon 01:58:19 PM 38.0058 -76.6511 174° South 428 493 34,100 2,168 Climbing Washington Center
Mon 01:59:17 PM 37.8892 -76.6364 174° South 422 486 35,100 966 Climbing Washington Center
Mon 02:00:17 PM 37.7725 -76.6189 173° South 422 486 36,000 1,240 Climbing Washington Center
Mon 02:01:18 PM 37.6475 -76.6042 175° South 432 497 37,600 1,736 Climbing Washington Center
Mon 02:02:18 PM 37.5267 -76.5869 174° South 444 511 39,500 1,190 Climbing Washington Center
Mon 02:03:19 PM 37.4100 -76.5828 178° South 439 505 40,000 254 Climbing Washington Center
Mon 02:04:16 PM 37.3033 -76.6153 194° South 406 467 40,000  Level Washington Center
Mon 02:05:19 PM 37.1967 -76.6478 194° South 406 467 40,000  Level Washington Center
Mon 02:06:16 PM 37.0900 -76.6828 195° South 399 459 40,000  Level Washington Center
Mon 02:07:17 PM 36.9811 -76.7150 193° South 399 459 40,000  Level Washington Center
Mon 02:08:18 PM 36.8764 -76.7500 195° South 399 459 40,000  Level Washington Center
Mon 02:09:19 PM 36.7697 -76.7819 193° South 394 453 40,000  Level Washington Center
Mon 02:10:19 PM 36.6672 -76.8167 195° South 394 453 40,000  Level Washington Center
Mon 02:11:17 PM 36.5583 -76.8486 193° South 394 453 40,000  Level Washington Center
Mon 02:12:17 PM 36.4517 -76.8831 195° South 394 453 40,000  Level Washington Center
Mon 02:13:17 PM 36.3575 -76.9150 195° South 394 453 40,000  Level Washington Center
Mon 02:14:18 PM 36.2486 -76.9467 193° South 394 453 40,000  Level Washington Center
Mon 02:15:19 PM 36.1397 -76.9808 194° South 394 453 40,000  Level Washington Center
Mon 02:16:19 PM 36.0286 -77.0150 194° South 399 459 40,000  Level Washington Center
Mon 02:17:17 PM 35.9197 -77.0464 193° South 399 459 40,000  Level Washington Center
Mon 02:18:18 PM 35.8089 -77.0775 193° South 404 465 40,000  Level Washington Center
Mon 02:19:19 PM 35.6978 -77.1139 195° South 404 465 40,000  Level Washington Center
Mon 02:20:17 PM 35.5825 -77.1475 193° South 404 465 40,000  Level Washington Center
Mon 02:21:18 PM 35.4717 -77.1811 194° South 399 459 40,000  Level Washington Center
Mon 02:22:18 PM 35.3647 -77.2119 193° South 399 459 40,000  Level Washington Center
Mon 02:23:16 PM 35.2536 -77.2453 194° South 399 459 40,000  Level Washington Center
Mon 02:24:17 PM 35.1469 -77.2786 194° South 399 459 40,000  Level Washington Center
Mon 02:25:19 PM 35.0358 -77.3119 194° South 399 459 40,000  Level Washington Center
Mon 02:26:17 PM 34.9289 -77.3450 194° South 399 459 40,000  Level Washington Center
Mon 02:27:17 PM 34.8200 -77.3781 194° South 399 459 40,000  Level Washington Center
Mon 02:28:18 PM 34.7108 -77.4086 193° South 399 459 40,000  Level Washington Center
Mon 02:29:19 PM 34.6019 -77.4417 194° South 399 459 40,000  Level Washington Center
Mon 02:30:18 PM 34.4908 -77.4717 193° South 399 459 40,000  Level Washington Center
Mon 02:31:18 PM 34.3800 -77.4969 191° South 405 466 40,000  Level Washington Center
Mon 02:32:19 PM 34.2669 -77.5194 189° South 410 472 40,000  Level Washington Center
Mon 02:33:17 PM 34.1539 -77.5419 189° South 415 478 40,000  Level Washington Center
Mon 02:34:00 PM 34.0719 -77.5581 189° South 415 478 40,000  Level Jacksonville Center
Mon 02:35:00 PM 33.9686 -77.5817 191° South 415 478 40,000  Level Jacksonville Center
Mon 02:36:00 PM 33.8550 -77.6061 190° South 415 478 40,000  Level Jacksonville Center
Mon 02:37:00 PM 33.7433 -77.6303 190° South 415 478 40,000  Level Jacksonville Center
Mon 02:38:00 PM 33.6317 -77.6569 191° South 415 478 40,000  Level Jacksonville Center
Mon 02:39:00 PM 33.5181 -77.6811 190° South 415 478 40,000  Level Jacksonville Center
Mon 02:40:00 PM 33.4042 -77.7053 190° South 415 478 40,000  Level Jacksonville Center
Mon 02:41:00 PM 33.2906 -77.7292 190° South 415 478 40,000  Level Jacksonville Center
Mon 02:42:00 PM 33.1789 -77.7556 191° South 415 478 40,000  Level Jacksonville Center
Mon 02:43:00 PM 33.0672 -77.7794 190° South 415 478 40,000  Level Jacksonville Center
Mon 02:44:00 PM 32.9511 -77.7983 188° South 415 478 40,000  Level Jacksonville Center
Mon 02:45:00 PM 32.8394 -77.8269 192° South 420 483 40,000  Level Jacksonville Center
Mon 02:46:00 PM 32.7297 -77.8503 190° South 415 478 40,000  Level Jacksonville Center
Mon 02:47:00 PM 32.6161 -77.8739 190° South 415 478 40,000  Level Jacksonville Center
Mon 02:48:00 PM 32.5022 -77.9025 192° South 415 478 40,000  Level Jacksonville Center
Mon 02:49:00 PM 32.3906 -77.9233 189° South 410 472 40,000  Level Jacksonville Center
Mon 02:50:00 PM 32.2767 -77.9467 190° South 410 472 40,000  Level Jacksonville Center
Mon 02:51:00 PM 32.1625 -77.9675 189° South 410 472 40,000  Level Jacksonville Center
Mon 02:52:00 PM 32.0489 -77.9981 193° South 415 478 40,000  Level Jacksonville Center
Mon 02:53:00 PM 31.9350 -78.0214 190° South 420 483 40,000  Level Jacksonville Center
Mon 02:54:00 PM 31.8211 -78.0444 190° South 425 489 40,000  Level Jacksonville Center
Mon 02:55:00 PM 31.7072 -78.0675 189° South 425 489 40,000  Level Jacksonville Center
Mon 02:56:00 PM 31.5914 -78.0956 192° South 425 489 40,000  Level Jacksonville Center
Mon 02:57:00 PM 31.4794 -78.1183 190° South 425 489 40,000  Level Jacksonville Center
Mon 02:58:00 PM 31.3656 -78.1386 189° South 425 489 40,000  Level Jacksonville Center
Mon 02:59:00 PM 31.2519 -78.1689 193° South 425 489 40,000  Level Jacksonville Center
Mon 03:00:00 PM 31.1400 -78.1889 189° South 425 489 40,000  Level Jacksonville Center
Mon 03:01:00 PM 31.0258 -78.2092 189° South 425 489 40,000  Level Jacksonville Center
Mon 03:02:00 PM 30.9019 -78.2444 194° South 425 489 40,000  Level Jacksonville Center
Mon 03:03:00 PM 30.7900 -78.2692 191° South 421 484 40,000  Level Jacksonville Center
Mon 03:04:00 PM 30.6783 -78.2939 191° South 415 478 40,000  Level Jacksonville Center
Mon 03:05:44 PM 30.4811 -78.3358 190° South 404 465 40,000  Level Miami Center
Mon 03:06:44 PM 30.3583 -78.3147 172° South 423 487 40,000  Level Miami Center
Mon 03:07:44 PM 30.2467 -78.2461 152° Southeast 440 506 40,000  Level Miami Center
Mon 03:08:44 PM 30.1264 -78.1797 154° Southeast 456 525 40,000  Level Miami Center
Mon 03:09:44 PM 30.0206 -78.1139 152° Southeast 462 532 40,000  Level Miami Center
Mon 03:10:44 PM 29.9022 -78.0431 153° Southeast 454 522 40,000  Level Miami Center
Mon 03:11:44 PM 29.7903 -77.9750 152° Southeast 451 519 40,000  Level Miami Center
Mon 03:12:44 PM 29.6822 -77.9142 154° Southeast 451 519 40,000  Level Miami Center
Mon 03:13:44 PM 29.5639 -77.8436 153° Southeast 456 525 40,000  Level Miami Center
Mon 03:14:44 PM 29.4517 -77.7736 151° Southeast 456 525 40,000  Level Miami Center
Mon 03:15:44 PM 29.3372 -77.7058 153° Southeast 461 531 40,000  Level Miami Center
Mon 03:16:44 PM 29.2125 -77.6361 154° Southeast 474 545 40,000  Level Miami Center
Mon 03:17:44 PM 29.1044 -77.5711 152° Southeast 460 529 40,000  Level Miami Center
Mon 03:18:44 PM 28.9942 -77.5039 152° Southeast 460 529 40,000  Level Miami Center
Mon 03:19:44 PM 28.8756 -77.4344 153° Southeast 461 531 40,000  Level Miami Center
Mon 03:20:44 PM 28.7631 -77.3700 153° Southeast 468 539 40,000  Level Miami Center
Mon 03:21:44 PM 28.6506 -77.3056 153° Southeast 468 539 40,000  Level Miami Center
Mon 03:22:44 PM 28.5358 -77.2389 153° Southeast 468 539 40,000  Level Miami Center
Mon 03:23:44 PM 28.4192 -77.1703 153° Southeast 468 539 40,000  Level Miami Center
Mon 03:24:44 PM 28.3086 -77.1061 153° Southeast 468 539 40,000  Level Miami Center
Mon 03:25:44 PM 28.2003 -77.0400 152° Southeast 468 539 40,000  Level Miami Center
Mon 03:26:44 PM 28.0792 -76.9761 155° Southeast 461 531 40,000  Level Miami Center
Mon 03:27:44 PM 27.9644 -76.9056 151° Southeast 461 531 40,000  Level Miami Center
Mon 03:28:44 PM 27.8558 -76.8303 148° Southeast 469 540 40,000  Level Miami Center
Mon 03:29:44 PM 27.7617 -76.7342 138° Southeast 457 526 40,000 250 Level Miami Center
Mon 03:30:44 PM 27.6614 -76.6311 138° Southeast 468 539 40,500 500 Climbing Miami Center
Mon 03:31:44 PM 27.5650 -76.5281 137° Southeast 485 558 41,000 250 Climbing Miami Center
Mon 03:32:44 PM 27.4708 -76.4347 139° Southeast 465 535 41,000  Level Miami Center
Mon 03:33:44 PM 27.3744 -76.3344 137° Southeast 460 529 41,000  Level Miami Center
Mon 03:34:44 PM 27.2739 -76.2300 137° Southeast 472 543 41,000  Level Miami Center
Mon 03:35:44 PM 27.1772 -76.1300 137° Southeast 478 550 41,000  Level Miami Center
Mon 03:36:44 PM 27.0786 -76.0303 138° Southeast 466 536 41,000  Level Miami Center
Mon 03:37:44 PM 26.9903 -75.9422 138° Southeast 464 534 41,000  Level Miami Center
Mon 03:38:44 PM 26.8892 -75.8383 137° Southeast 469 540 41,000  Level Miami Center
Mon 03:39:44 PM 26.7903 -75.7392 138° Southeast 468 539 41,000  Level Miami Center
Mon 03:40:44 PM 26.7081 -75.6353 132° Southeast 458 527 41,000  Level Miami Center
Mon 03:41:44 PM 26.6278 -75.5244 129° Southeast 463 533 41,000  Level Miami Center
Mon 03:42:44 PM 26.5556 -75.4253 129° Southeast 462 532 41,000  Level Miami Center
Mon 03:43:44 PM 26.4731 -75.3103 129° Southeast 462 532 41,000  Level Miami Center
Mon 03:44:44 PM 26.3839 -75.1933 130° Southeast 468 539 41,000  Level Miami Center
Mon 03:45:44 PM 26.3033 -75.0831 129° Southeast 468 539 41,000  Level Miami Center
Mon 03:46:44 PM 26.2247 -74.9756 129° Southeast 457 526 41,000  Level Miami Center
Mon 03:47:44 PM 26.1481 -74.8678 128° Southeast 457 526 41,000  Level Miami Center
Mon 03:48:44 PM 26.0650 -74.7536 129° Southeast 457 526 41,000  Level Miami Center
Mon 03:49:44 PM 25.9797 -74.6442 131° Southeast 465 535 41,000  Level Miami Center
Mon 03:50:44 PM 25.9006 -74.5347 129° Southeast 472 543 41,000  Level Miami Center
Mon 03:51:44 PM 25.8133 -74.4233 131° Southeast 466 536 41,000  Level Miami Center
Mon 03:52:44 PM 25.7297 -74.3028 128° Southeast 463 533 41,000  Level Miami Center
Mon 03:53:44 PM 25.6442 -74.1894 130° Southeast 473 544 41,000  Level Miami Center
Mon 03:54:44 PM 25.5647 -74.0831 130° Southeast 464 534 41,000  Level Miami Center
Mon 03:55:44 PM 25.4833 -73.9767 130° Southeast 464 534 41,000  Level Miami Center
Mon 03:56:44 PM 25.3997 -73.8661 130° Southeast 465 535 41,000  Level Miami Center
Mon 03:57:44 PM 25.3158 -73.7531 129° Southeast 470 541 41,000  Level Miami Center
Mon 03:58:44 PM 25.2297 -73.6406 130° Southeast 470 541 41,000  Level Miami Center
Mon 03:59:44 PM 25.1503 -73.5369 130° Southeast 463 533 41,000  Level Miami Center
Mon 04:00:44 PM 25.0683 -73.4269 129° Southeast 463 533 41,000  Level Miami Center
Mon 04:01:44 PM 24.9864 -73.3169 129° Southeast 468 539 41,000  Level Miami Center
Mon 04:02:44 PM 24.9042 -73.2092 130° Southeast 468 539 41,000  Level Miami Center
Mon 04:03:44 PM 24.8200 -73.0997 130° Southeast 468 539 41,000  Level Miami Center
Mon 04:04:44 PM 24.7336 -72.9903 131° Southeast 468 539 41,000  Level Miami Center
Mon 04:05:44 PM 24.6494 -72.8808 130° Southeast 468 539 41,000  Level Miami Center
Mon 04:06:44 PM 24.5819 -72.7872 128° Southeast 461 531 41,000  Level Miami Center
Mon 04:07:44 PM 24.4914 -72.6783 132° Southeast 461 531 41,000  Level Miami Center
Mon 04:08:44 PM 24.4047 -72.5717 132° Southeast 471 542 41,000  Level Miami Center
Mon 04:09:44 PM 24.3239 -72.4536 127° Southeast 455 524 41,000  Level Miami Center
Mon 04:10:44 PM 24.2414 -72.3497 131° Southeast 455 524 41,000  Level Miami Center
Mon 04:11:44 PM 24.1567 -72.2411 131° Southeast 460 529 41,000  Level Miami Center
Mon 04:12:44 PM 24.0742 -72.1372 131° Southeast 460 529 41,000  Level Miami Center
Mon 04:13:44 PM 23.9933 -72.0267 129° Southeast 468 539 41,000  Level Miami Center
Mon 04:14:44 PM 23.9103 -71.9208 131° Southeast 462 532 41,000  Level Miami Center
Mon 04:15:44 PM 23.8233 -71.8108 131° Southeast 462 532 41,000  Level Miami Center
Mon 04:16:44 PM 23.7425 -71.7075 131° Southeast 462 532 41,000  Level Miami Center
Mon 04:17:44 PM 23.6594 -71.6019 131° Southeast 462 532 41,000  Level Miami Center
Mon 04:18:44 PM 23.5764 -71.4992 131° Southeast 462 532 41,000  Level Miami Center
Mon 04:19:44 PM 23.4933 -71.3961 131° Southeast 462 532 41,000  Level Miami Center
Mon 04:20:44 PM 23.4144 -71.2933 130° Southeast 455 524 41,000  Level Miami Center
Mon 04:21:44 PM 23.3314 -71.1953 133° Southeast 448 516 41,000  Level Miami Center
Mon 04:22:44 PM 23.2500 -71.0881 130° Southeast 448 516 41,000  Level Miami Center
Mon 04:23:44 PM 23.1689 -70.9881 131° Southeast 454 522 41,000  Level Miami Center
Mon 04:24:44 PM 23.0856 -70.8811 130° Southeast 454 522 41,000  Level Miami Center
Mon 04:25:44 PM 23.0108 -70.7878 131° Southeast 454 522 41,000  Level Miami Center
Mon 04:26:44 PM 22.9272 -70.6836 131° Southeast 454 522 41,000  Level Miami Center
Mon 04:27:44 PM 22.8439 -70.5839 132° Southeast 459 528 41,000  Level Miami Center
Mon 04:28:44 PM 22.7600 -70.4756 130° Southeast 459 528 41,000  Level Miami Center
Mon 04:29:44 PM 22.6742 -70.3697 131° Southeast 459 528 41,000  Level Miami Center
Mon 04:30:44 PM 22.5883 -70.2683 133° Southeast 464 534 41,000  Level Miami Center
Mon 04:31:44 PM 22.5069 -70.1669 131° Southeast 464 534 41,000  Level Miami Center
Mon 04:32:44 PM 22.4208 -70.0639 132° Southeast 464 534 41,000  Level Miami Center
Mon 04:33:44 PM 22.3392 -69.9603 130° Southeast 464 534 41,000  Level Miami Center
Mon 04:34:44 PM 22.2550 -69.8572 131° Southeast 464 534 41,000  Level Miami Center
Mon 04:35:44 PM 22.1711 -69.7544 131° Southeast 464 534 41,000  Level Miami Center
Mon 04:36:44 PM 22.0869 -69.6514 131° Southeast 464 534 41,000  Level Miami Center
Mon 04:37:44 PM 21.9989 -69.5511 133° Southeast 464 534 41,000  Level Miami Center
Mon 04:38:44 PM 21.9189 -69.4483 130° Southeast 458 527 41,000  Level Miami Center
Mon 04:39:44 PM 21.8303 -69.3439 132° Southeast 458 527 41,000  Level Miami Center
Mon 04:40:44 PM 21.7439 -69.2417 132° Southeast 464 534 41,000  Level Miami Center
Mon 04:41:44 PM 21.6617 -69.1394 131° Southeast 464 534 41,000  Level Miami Center
Mon 04:42:44 PM 21.5733 -69.0378 133° Southeast 464 534 41,000  Level Miami Center
Mon 04:43:44 PM 21.4844 -68.9317 132° Southeast 464 534 41,000  Level Miami Center
Mon 04:44:44 PM 21.4000 -68.8297 132° Southeast 470 541 41,000  Level Miami Center
Mon 04:45:44 PM 21.3069 -68.7242 133° Southeast 471 542 41,000  Level Miami Center
Mon 04:46:44 PM 21.2244 -68.6228 131° Southeast 471 542 41,000  Level Miami Center
Mon 04:47:44 PM 21.1356 -68.5194 133° Southeast 471 542 41,000  Level Miami Center
Mon 04:48:44 PM 21.0508 -68.4158 131° Southeast 471 542 41,000 -100 Level Miami Center
Mon 04:49:44 PM 20.9639 -68.3128 132° Southeast 471 542 40,800 -600 Descending Miami Center
Mon 04:50:44 PM 20.8811 -68.2094 131° Southeast 471 542 39,800 -900 Descending Miami Center
Mon 04:51:44 PM 20.7881 -68.1089 135° Southeast 471 542 39,000 -400 Descending Miami Center
Mon 04:52:44 PM 20.6686 -68.0569 158° South 448 516 39,000  Level Miami Center
Mon 04:53:44 PM 20.5333 -68.0192 165° South 453 521 39,000  Level Miami Center
Mon 04:54:44 PM 20.4106 -67.9808 164° South 459 528 39,000  Level Miami Center
Mon 04:55:44 PM 20.3069 -67.9544 167° South 466 536 39,000  Level Miami Center
Mon 04:56:44 PM 20.1569 -67.9133 166° South 466 536 39,000  Level Miami Center
Mon 04:57:35 PM 20.0667 -67.8667 154° Southeast 460 529 39,000 -216 Level San Juan Center
Mon 04:58:35 PM 19.9333 -67.8333 167° South 460 529 38,600 -650 Descending San Juan Center
Mon 04:59:35 PM 19.8167 -67.8000 165° South 470 541 37,700 -800 Descending San Juan Center
Mon 05:00:35 PM 19.6833 -67.7500 161° South 470 541 37,000 -350 Descending San Juan Center
Mon 05:01:35 PM 19.5500 -67.7167 167° South 470 541 37,000 -645 Level San Juan Center
Mon 05:02:36 PM 19.4333 -67.6833 165° South 470 541 35,700 -1,983 Descending San Juan Center
Mon 05:03:36 PM 19.3000 -67.6500 167° South 470 541 33,000 -2,622 Descending San Juan Center
Mon 05:04:35 PM 19.2167 -67.5667 137° Southeast 440 506 30,500 -2,350 Descending San Juan Center
Mon 05:05:36 PM 19.1667 -67.4500 114° Southeast 430 495 28,300 -2,231 Descending San Juan Center
Mon 05:06:36 PM 19.1000 -67.3333 121° Southeast 410 472 26,000 -2,100 Descending San Juan Center
Mon 05:07:36 PM 19.0500 -67.2333 118° Southeast 390 449 24,100 -2,000 Descending San Juan Center
Mon 05:08:36 PM 19.0167 -67.1333 109° East 390 449 22,000 -2,050 Descending San Juan Center
Mon 05:09:36 PM 18.9667 -67.0333 118° Southeast 360 414 20,000 -1,950 Descending San Juan Center
Mon 05:10:36 PM 18.9167 -66.9500 122° Southeast 340 391 18,100 -1,900 Descending San Juan Center
Mon 05:11:36 PM 18.8667 -66.8500 118° Southeast 330 380 16,200 -1,785 Descending San Juan Center
Mon 05:12:37 PM 18.8333 -66.7833 118° Southeast 310 357 14,500 -1,736 Descending San Juan Center
Mon 05:13:37 PM 18.8000 -66.7000 113° Southeast 300 345 12,700 -1,550 Descending San Juan Center
Mon 05:14:37 PM 18.7500 -66.6167 122° Southeast 290 334 11,400 -1,250 Descending San Juan Center
Mon 05:15:37 PM 18.7000 -66.5500 128° Southeast 300 345 10,200 -1,150 Descending San Juan Center
Mon 05:16:37 PM 18.6500 -66.4833 128° Southeast 270 311 9,100 -1,250 Descending San Juan Center
Mon 05:17:37 PM 18.6000 -66.4333 137° Southeast 270 311 7,700 -1,400 Descending San Juan Center
Mon 05:18:37 PM 18.5500 -66.3667 128° Southeast 260 299 6,300 -1,400 Descending San Juan Center
Mon 05:19:37 PM 18.5167 -66.3000 118° Southeast 250 288 4,900 -1,000 Descending San Juan Center
Mon 05:20:37 PM 18.4667 -66.2500 137° Southeast 230 265 4,300 -550 Descending San Juan Center
Mon 05:21:37 PM 18.4333 -66.2167 137° Southeast 190 219 3,800 -829 Descending San Juan Center
Mon 05:23:38 PM 18.4333 -66.1000 118° Southeast 170 196 1,800 -895 Descending San Juan Center
Mon 05:24:38 PM 18.4333 -66.0667 90° East 110 127 1,100 -650 Descending San Juan Center
Mon 05:25:38 PM 18.4333 -66.0333 90° East 130 150 500 -600 Descending San Juan Center

Login

Don't have an account? Register now (free) for customized features, flight alerts, and more!